createdAt,value
2019-03-22T00:04:56.879Z,54
2019-03-22T00:09:56.856Z,54
2019-03-22T00:14:56.942Z,53
2019-03-22T00:19:56.674Z,55
2019-03-22T00:24:56.891Z,52
2019-03-22T00:29:57.097Z,54
2019-03-22T00:34:56.985Z,50
2019-03-22T00:39:56.782Z,56
2019-03-22T00:44:56.769Z,54
2019-03-22T00:49:56.666Z,53
2019-03-22T00:54:56.651Z,52
2019-03-22T00:59:56.858Z,57
2019-03-22T01:04:56.621Z,47
2019-03-22T01:09:56.723Z,52
2019-03-22T01:14:56.840Z,51
2019-03-22T01:19:57.050Z,53
2019-03-22T01:24:56.993Z,53
2019-03-22T01:29:56.802Z,57
2019-03-22T01:34:56.578Z,52
2019-03-22T01:39:56.851Z,52
2019-03-22T01:44:56.683Z,57
2019-03-22T01:49:56.822Z,59
2019-03-22T01:54:56.617Z,55
2019-03-22T01:59:56.547Z,57
2019-03-22T02:04:56.544Z,57
2019-03-22T02:09:56.810Z,56
2019-03-22T02:14:56.630Z,54
2019-03-22T02:19:56.631Z,57
2019-03-22T02:24:56.851Z,55
2019-03-22T02:29:56.726Z,55
2019-03-22T02:34:56.674Z,60
2019-03-22T02:39:56.604Z,55
2019-03-22T02:44:56.579Z,56
2019-03-22T02:49:56.761Z,58
2019-03-22T02:54:56.711Z,57
2019-03-22T02:59:56.801Z,59
2019-03-22T03:04:56.552Z,56
2019-03-22T03:09:56.557Z,57
2019-03-22T03:14:56.392Z,54
2019-03-22T03:19:56.755Z,56
2019-03-22T03:24:56.476Z,55
2019-03-22T03:29:56.594Z,50
2019-03-22T03:34:56.777Z,50
2019-03-22T03:39:56.457Z,54
2019-03-22T03:44:56.467Z,50
2019-03-22T03:49:56.695Z,47
2019-03-22T03:54:56.714Z,48
2019-03-22T03:59:56.395Z,48
2019-03-22T04:04:56.356Z,43
2019-03-22T04:09:56.626Z,47
2019-03-22T04:14:56.291Z,43
2019-03-22T04:19:56.623Z,46
2019-03-22T04:24:56.637Z,46
2019-03-22T04:29:56.328Z,43
2019-03-22T04:34:56.359Z,52
2019-03-22T04:39:56.559Z,49
2019-03-22T04:44:56.534Z,49
2019-03-22T04:49:56.294Z,54
2019-03-22T04:54:56.318Z,52
2019-03-22T04:59:56.619Z,52
2019-03-22T05:04:56.567Z,49
2019-03-22T05:09:56.407Z,52
2019-03-22T05:14:56.439Z,49
2019-03-22T05:19:56.284Z,54
2019-03-22T05:24:56.299Z,52
2019-03-22T05:29:56.334Z,54
2019-03-22T05:34:56.217Z,49
2019-03-22T05:39:56.571Z,55
2019-03-22T05:44:56.175Z,55
2019-03-22T05:49:56.343Z,52
2019-03-22T05:54:56.179Z,53
2019-03-22T05:59:56.377Z,55
2019-03-22T06:04:56.240Z,54
2019-03-22T06:09:56.485Z,53
2019-03-22T06:14:56.349Z,51
2019-03-22T06:19:56.387Z,55
2019-03-22T06:24:56.153Z,55
2019-03-22T06:29:56.453Z,52
2019-03-22T06:34:56.407Z,51
2019-03-22T06:39:56.342Z,56
2019-03-22T06:44:56.426Z,53
2019-03-22T06:49:56.472Z,56
2019-03-22T06:54:56.191Z,52
2019-03-22T07:00:05.896Z,55
2019-03-22T07:04:56.104Z,57
2019-03-22T07:09:56.127Z,52
2019-03-22T07:14:56.264Z,54
2019-03-22T07:19:56.395Z,54
2019-03-22T07:24:56.441Z,60
2019-03-22T07:29:56.095Z,55
2019-03-22T07:34:56.337Z,59
2019-03-22T07:39:56.141Z,55
2019-03-22T07:44:56.281Z,57
2019-03-22T07:49:56.307Z,59
2019-03-22T07:54:56.314Z,61
2019-03-22T07:59:56.155Z,58
2019-03-22T08:04:56.041Z,55
2019-03-22T08:09:56.243Z,62
2019-03-22T08:14:56.246Z,58
2019-03-22T08:19:57.233Z,62
2019-03-22T08:24:56.197Z,59
2019-03-22T08:29:56.089Z,60
2019-03-22T08:34:56.202Z,60
2019-03-22T08:39:56.320Z,62
2019-03-22T08:44:56.224Z,59
2019-03-22T08:49:56.020Z,62
2019-03-22T08:54:56.048Z,60
2019-03-22T08:59:56.212Z,61
2019-03-22T09:04:55.892Z,59
2019-03-22T09:09:56.136Z,58
2019-03-22T09:14:56.130Z,62
2019-03-22T09:19:56.274Z,63
2019-03-22T09:24:56.306Z,60
2019-03-22T09:29:56.203Z,57
2019-03-22T09:34:55.999Z,62
2019-03-22T09:39:56.234Z,64
2019-03-22T09:44:56.191Z,60
2019-03-22T09:49:55.817Z,64
2019-03-22T09:54:56.111Z,64
2019-03-22T09:59:56.147Z,60
2019-03-22T10:04:55.832Z,63
2019-03-22T10:09:56.102Z,66
2019-03-22T10:14:55.865Z,62
2019-03-22T10:19:56.102Z,64
2019-03-22T10:24:56.101Z,65
2019-03-22T10:29:55.812Z,58
2019-03-22T10:34:55.935Z,64
2019-03-22T10:39:55.975Z,64
2019-03-22T10:44:55.885Z,66
2019-03-22T10:49:56.046Z,66
2019-03-22T10:54:55.772Z,64
2019-03-22T10:59:56.063Z,66
2019-03-22T11:04:55.832Z,64
2019-03-22T11:09:55.954Z,63
2019-03-22T11:14:55.914Z,63
2019-03-22T11:19:57.554Z,67
2019-03-22T11:24:55.715Z,67
2019-03-22T11:29:55.973Z,69
2019-03-22T11:34:56.002Z,65
2019-03-22T11:39:56.040Z,70
2019-03-22T11:44:55.952Z,69
2019-03-22T11:49:55.975Z,67
2019-03-22T11:54:56.038Z,66
2019-03-22T11:59:55.930Z,62
2019-03-22T12:04:55.893Z,63
2019-03-22T12:09:55.877Z,61
2019-03-22T12:14:55.833Z,61
2019-03-22T12:19:55.802Z,64
2019-03-22T12:24:55.945Z,60
2019-03-22T12:29:55.840Z,57
2019-03-22T12:34:55.592Z,58
2019-03-22T12:39:55.657Z,59
2019-03-22T12:44:55.826Z,64
2019-03-22T12:49:55.660Z,62
2019-03-22T12:54:55.656Z,58
2019-03-22T12:59:55.795Z,55
2019-03-22T13:04:55.802Z,54
2019-03-22T13:09:55.573Z,51
2019-03-22T13:14:56.726Z,49
2019-03-22T13:19:55.850Z,51
2019-03-22T13:24:55.584Z,55
2019-03-22T13:29:55.793Z,47
2019-03-22T13:34:55.859Z,51
2019-03-22T13:39:55.592Z,50
2019-03-22T13:44:55.710Z,48
2019-03-22T13:49:55.824Z,45
2019-03-22T13:54:55.805Z,44
2019-03-22T13:59:55.488Z,45
2019-03-22T14:04:55.558Z,45
2019-03-22T14:09:55.583Z,46
2019-03-22T14:14:55.717Z,44
2019-03-22T14:19:55.570Z,45
2019-03-22T14:24:55.792Z,45
2019-03-22T14:29:55.613Z,45
2019-03-22T14:34:55.638Z,44
2019-03-22T14:39:55.577Z,46
2019-03-22T14:44:55.408Z,43
2019-03-22T14:49:55.637Z,47
2019-03-22T14:54:55.565Z,45
2019-03-22T14:59:58.790Z,41
2019-03-22T15:04:55.476Z,42
2019-03-22T15:09:55.660Z,43
2019-03-22T15:14:55.431Z,41
2019-03-22T15:19:55.593Z,38
2019-03-22T15:24:55.635Z,40
2019-03-22T15:29:55.559Z,37
2019-03-22T15:34:55.311Z,39
2019-03-22T15:39:55.522Z,39
2019-03-22T15:44:55.588Z,40
2019-03-22T15:49:55.579Z,41
2019-03-22T15:54:55.418Z,40
2019-03-22T15:59:55.566Z,40
2019-03-22T16:04:55.645Z,41
2019-03-22T16:09:55.311Z,44
2019-03-22T16:14:55.253Z,40
2019-03-22T16:19:55.380Z,41
2019-03-22T16:24:55.511Z,41
2019-03-22T16:29:55.515Z,41
2019-03-22T16:34:55.353Z,41
2019-03-22T16:39:55.362Z,44
2019-03-22T16:44:55.339Z,44
2019-03-22T16:49:55.248Z,43
2019-03-22T16:54:55.303Z,44
2019-03-22T16:59:55.215Z,39
2019-03-22T17:04:55.247Z,41
2019-03-22T17:09:55.198Z,41
2019-03-22T17:14:55.242Z,42
2019-03-22T17:19:55.587Z,39
2019-03-22T17:24:55.332Z,43
2019-03-22T17:29:55.245Z,41
2019-03-22T17:34:55.470Z,42
2019-03-22T17:39:55.204Z,49
2019-03-22T17:44:55.541Z,56
2019-03-22T17:49:55.390Z,56
2019-03-22T17:54:55.080Z,57
2019-03-22T17:59:55.384Z,51
2019-03-22T18:04:55.248Z,58
2019-03-22T18:09:55.466Z,55
2019-03-22T18:14:55.413Z,61
2019-03-22T18:19:55.512Z,61
2019-03-22T18:24:55.129Z,60
2019-03-22T18:29:55.365Z,59
2019-03-22T18:34:55.087Z,60
2019-03-22T18:39:55.117Z,59
2019-03-22T18:44:55.211Z,59
2019-03-22T18:49:55.075Z,59
2019-03-22T18:54:55.163Z,58
2019-03-22T18:59:55.032Z,57
2019-03-22T19:04:55.160Z,56
2019-03-22T19:09:55.156Z,54
2019-03-22T19:14:55.231Z,58
2019-03-22T19:19:55.018Z,57
2019-03-22T19:24:55.062Z,58
2019-03-22T19:29:55.169Z,57
2019-03-22T19:34:55.333Z,58
2019-03-22T19:39:55.200Z,55
2019-03-22T19:44:55.158Z,62
2019-03-22T19:49:55.181Z,58
2019-03-22T19:54:55.028Z,57
2019-03-22T19:59:55.388Z,60
2019-03-22T20:05:04.387Z,58
2019-03-22T20:09:55.037Z,54
2019-03-22T20:14:54.961Z,57
2019-03-22T20:19:55.160Z,59
2019-03-22T20:24:54.970Z,60
2019-03-22T20:29:55.300Z,59
2019-03-22T20:34:54.975Z,61
2019-03-22T20:39:55.034Z,58
2019-03-22T20:44:55.028Z,62
2019-03-22T20:49:55.296Z,63
2019-03-22T20:54:55.134Z,61
2019-03-22T20:59:55.125Z,61
2019-03-22T21:04:54.927Z,66
2019-03-22T21:09:55.147Z,62
2019-03-22T21:14:54.842Z,62
2019-03-22T21:19:54.966Z,60
2019-03-22T21:24:54.875Z,60
2019-03-22T21:29:54.927Z,58
2019-03-22T21:34:55.139Z,57
2019-03-22T21:39:55.239Z,60
2019-03-22T21:44:54.975Z,60
2019-03-22T21:49:55.190Z,58
2019-03-22T21:54:54.919Z,63
2019-03-22T21:59:54.959Z,57
2019-03-22T22:04:54.815Z,61
2019-03-22T22:09:55.208Z,64
2019-03-22T22:14:54.818Z,64
2019-03-22T22:19:54.855Z,60
2019-03-22T22:24:54.941Z,58
2019-03-22T22:29:54.750Z,63
2019-03-22T22:34:54.949Z,61
2019-03-22T22:39:54.860Z,66
2019-03-22T22:44:54.907Z,62
2019-03-22T22:49:54.822Z,61
2019-03-22T22:54:54.907Z,62
2019-03-22T22:59:54.763Z,61
2019-03-22T23:04:54.970Z,56
2019-03-22T23:09:54.980Z,61
2019-03-22T23:14:54.677Z,57
2019-03-22T23:19:54.899Z,56
2019-03-22T23:24:54.669Z,57
2019-03-22T23:29:54.634Z,55
2019-03-22T23:34:59.109Z,54
2019-03-22T23:39:54.973Z,57
2019-03-22T23:44:54.593Z,59
2019-03-22T23:49:54.702Z,49
2019-03-22T23:54:54.962Z,59
2019-03-22T23:59:54.649Z,54
